Sonic Adventure (DX): Overall Rankings

Records: Times | Rings | Scores | Races | Bosses | Freestyle
Leaders: Times | Rings | Scores | Races | Bosses | Freestyle | Overall
Rank Player Percent Points Date
1 Sonicspeedruner 98.0% 338 02-24-18
2 Gamepro011 98.0% 347 02-24-18
3 DarkPolarNight 96.7% 564 02-24-18
4 Jawzun 93.2% 1183 02-24-18
5 Dashjump 91.6% 1452 02-24-18
6 DarkspinesSonic 89.8% 1770 02-24-18
7 Avento128bits 89.6% 1805 02-24-18
8 ike6252 89.4% 1838 02-24-18
9 F-Man 87.6% 2155 02-24-18
10 Coolfansonic 87.1% 2241 02-24-18
11 HyperSonic7701 84.3% 2735 02-24-18
12 TheRealShadnic 84.0% 2789 02-24-18
13 yoshifan 82.6% 3031 02-24-18
14 frankoredstrato 82.2% 3099 02-24-18
15 francisco 81.2% 3266 02-24-18
16 Marth 81.0% 3299 02-24-18
17 InferSaime 79.8% 3518 02-24-18
18 PfoSonic 79.3% 3598 02-24-18
19 Paragod 78.9% 3670 02-24-18
20 THC98 78.0% 3823 02-24-18
21 Stefan 75.7% 4240 02-24-18
22 RPGnutter 73.5% 4610 02-24-18
23 bertin 73.4% 4631 02-24-18
24 sonicam 71.3% 5000 02-24-18
25 drminus 70.0% 5234 02-24-18
26 xXMegaManXx 69.9% 5247 02-24-18
27 chainchumper 65.8% 5962 02-24-18
28 Combo 65.4% 6032 02-24-18
29 Dekuboy 64.8% 6127 02-24-18
30 chaos shadow 64.8% 6134 02-24-18
31 SkyLights 64.2% 6230 02-24-18
32 Diamond 62.2% 6591 02-24-18
33 Auriman1 60.1% 6953 02-24-18
34 GerbilSoft 60.1% 6960 02-24-18
35 OmegaDJ 60.0% 6966 02-24-18
36 magnum12 59.2% 7106 02-24-18
37 Thorn 57.0% 7490 02-24-18
38 P1 Pause 56.9% 7515 02-24-18
39 mike89 55.8% 7701 02-24-18
40 Dave Cramer 53.9% 8039 02-24-18
41 Groudon199 53.8% 8047 02-24-18
42 Parax 53.1% 8174 02-24-18
43 Shadow Jacky 52.7% 8240 02-24-18
44 Psymar 47.5% 9145 02-24-18
45 Arch 46.9% 9262 02-24-18
46 Chao_Fan 45.9% 9429 02-24-18
47 mauserman 45.1% 9572 02-24-18
48 Quartz 44.8% 9615 02-24-18
49 teamblackarms 44.0% 9755 02-24-18
50 Calfd 43.5% 9857 02-24-18
51 Psyknux 43.3% 9888 02-24-18
52 James_Bertolli 43.0% 9931 02-24-18
53 NintenDan 42.6% 10004 02-24-18
54 Webber3000 42.1% 10097 02-24-18
55 Turbos 42.0% 10121 02-24-18
56 Ring Rush 41.7% 10158 02-24-18
57 Cream147 41.5% 10193 02-24-18
58 videogamemaster777 41.4% 10217 02-24-18
59 Fr3nZy 41.3% 10233 02-24-18
60 Siavash Tazari 41.2% 10245 02-24-18
61 buddychaos0415 40.6% 10351 02-24-18
62 SadisticMystic 40.1% 10436 02-24-18
63 ethmar 39.7% 10514 02-24-18
64 eggFL 39.3% 10577 02-24-18
65 SB737 37.8% 10853 02-24-18
66 supersonic465 37.3% 10934 02-24-18
67 supersonicfan 36.7% 11045 02-24-18
68 FuzZerd 35.5% 11251 02-24-18
69 Aitamen 35.0% 11336 02-24-18
70 BigAL49 34.6% 11405 02-24-18
71 elecmouse101 34.6% 11406 02-24-18
72 danieldude 34.5% 11426 02-24-18
73 Austinf 33.6% 11583 02-24-18
74 metanightmare22 33.4% 11617 02-24-18
75 Cyan Ryan 33.2% 11648 02-24-18
76 dabestgamer 32.9% 11694 02-24-18
77 MiStEr_ShAoLiN 32.9% 11707 02-24-18
78 Andrea Ritsu 32.1% 11842 02-24-18
79 itsPersonnal 31.7% 11914 02-24-18
80 Cybrax 31.1% 12023 02-24-18
81 SilvertheAlmighty 30.7% 12077 02-24-18
82 JamminX42 30.7% 12086 02-24-18
83 Nim 30.6% 12105 02-24-18
84 VMU Player Banned 29.0% 12384 02-24-18
85 Staf 28.5% 12465 02-24-18
86 Omega Rafael Santos 28.4% 12484 02-24-18
87 The T 28.0% 12547 02-24-18
88 EngiNerd 27.9% 12579 02-24-18
89 lordmetalsonic 27.4% 12663 02-24-18
90 Hipertails12 26.9% 12746 02-24-18
91 welldooder64 26.8% 12760 02-24-18
92 GreatStar 26.6% 12804 02-24-18
93 The Great Lord Mick 26.4% 12831 02-24-18
94 Sondow 26.3% 12844 02-24-18
95 Mastakirby 26.3% 12851 02-24-18
96 LinksDarkArrows 26.1% 12882 02-24-18
97 Skylace 25.2% 13040 02-24-18
98 a_moustache 24.2% 13222 02-24-18
99 Rolken 23.7% 13304 02-24-18
100 Xia 22.0% 13597 02-24-18
101 Kogen Player Banned 22.0% 13600 02-24-18
101 Spinballwizard 22.0% 13600 02-24-18
103 Twilisailor 21.6% 13673 02-24-18
104 f0rever_zer0 21.5% 13690 02-24-18
105 Don 21.3% 13720 02-24-18
106 Cutiefox 21.3% 13722 02-24-18
107 Game_Complete 21.2% 13739 02-24-18
108 Miles9999 21.1% 13753 02-24-18
109 andres430 20.7% 13830 02-24-18
110 Cruizer 20.4% 13876 02-24-18
111 iSonicKid2K 20.3% 13893 02-24-18
112 SADXTryHard 20.1% 13931 02-24-18
113 GarnetPrincess 19.6% 14020 02-24-18
114 N 19.3% 14075 02-24-18
115 AxlThunder 19.0% 14120 02-24-18
116 Niczur 19.0% 14127 02-24-18
117 knuckles_sonic8 18.5% 14213 02-24-18
118 The Knuckles Chao 18.2% 14258 02-24-18
119 KinkyCadence 18.2% 14262 02-24-18
120 Team_Yoshi 17.9% 14325 02-24-18
121 Termon 17.8% 14331 02-24-18
122 LittleBigness 17.8% 14342 02-24-18
123 SonicWinDX 17.6% 14366 02-24-18
124 FoxBoy 17.6% 14377 02-24-18
125 Drakodan 16.8% 14505 02-24-18
126 Sonic Singularity 15.9% 14673 02-24-18
127 Pokemonmaster888 15.6% 14724 02-24-18
128 paulie9990 15.2% 14788 02-24-18
129 SilverSonic 14.6% 14897 02-24-18
130 MPit08 14.5% 14919 02-24-18
131 WeegeeZV 14.2% 14962 02-24-18
132 koinu93 14.1% 14984 02-24-18
133 Mo Player Banned 14.0% 14996 02-24-18
134 HyperSonic64 13.6% 15066 02-24-18
135 Cod4Scopes 13.6% 15067 02-24-18
136 booo95 13.5% 15091 02-24-18
137 Chawkk 13.3% 15113 02-24-18
138 Jerzia 13.3% 15116 02-24-18
139 SuperSonic101 13.1% 15161 02-24-18
140 Hunters13 13.0% 15165 02-24-18
141 Maxinfamily 13.0% 15176 02-24-18
142 Kanimayo_Jp 12.6% 15243 02-24-18
142 LilZero 12.6% 15243 02-24-18
144 BrokenArthritis 12.5% 15267 02-24-18
145 PsyBorg 12.4% 15284 02-24-18
146 Flying Fox 12.3% 15292 02-24-18
147 Therio 12.0% 15345 02-24-18
148 sonicspeed 11.9% 15372 02-24-18
149 douglas 11.8% 15386 02-24-18
150 Matt_TY 11.4% 15449 02-24-18
151 thewaytodawnnn 11.3% 15461 02-24-18
152 ModifiedMonkee 11.2% 15489 02-24-18
153 Cooljay 10.8% 15548 02-24-18
154 SuperBlitzCraig 10.7% 15574 02-24-18
155 joecoolgames 10.6% 15585 02-24-18
156 SeaWolf 10.6% 15586 02-24-18
157 videogamer1014 10.5% 15614 02-24-18
158 AC-Tygo 10.2% 15659 02-24-18
159 welshmoose05 10.2% 15667 02-24-18
160 OddCook 10.0% 15704 02-24-18
161 crazy1993 9.9% 15712 02-24-18
162 TFEC Headshot 9.8% 15728 02-24-18
163 Mcshuggets 9.7% 15752 02-24-18
164 niscool 9.4% 15798 02-24-18
165 Mariobutch 9.3% 15825 02-24-18
166 Irregular Zero 9.3% 15826 02-24-18
167 nuckrieg 9.2% 15834 02-24-18
168 SonicAD 9.1% 15846 02-24-18
169 Shadowthegreat 9.0% 15867 02-24-18
170 superjupi 9.0% 15870 02-24-18
171 SirTobbii 9.0% 15874 02-24-18
172 sonamyfan666 8.7% 15919 02-24-18
173 iarebored 8.6% 15933 02-24-18
174 Powerjohn25 8.6% 15935 02-24-18
175 SaviourDC 8.6% 15942 02-24-18
176 SonicKnuckles 8.6% 15945 02-24-18
177 adf 8.2% 16008 02-24-18
178 Werey 8.2% 16010 02-24-18
179 Megaman EXE565 8.0% 16049 02-24-18
180 ArcticDragon 7.6% 16118 02-24-18
181 Platformer 7.6% 16119 02-24-18
182 timpkmn89 7.5% 16136 02-24-18
183 wheatrich 7.4% 16152 02-24-18
184 Swift Hobo 7.3% 16166 02-24-18
185 FocusSight64 7.3% 16167 02-24-18
186 Rickyman48 7.1% 16202 02-24-18
187 KitsuneYamaro 7.0% 16213 02-24-18
188 Triseena 6.9% 16242 02-24-18
189 dShadow 6.6% 16295 02-24-18
190 Destroyer121121 6.5% 16303 02-24-18
191 Starlight Sable 6.5% 16308 02-24-18
192 CyberShadow 6.5% 16312 02-24-18
193 slade23 6.5% 16315 02-24-18
194 IsisDazs 6.3% 16343 02-24-18
195 BlankTH 6.1% 16376 02-24-18
196 Monkeh 6.1% 16383 02-24-18
197 Redd 6.0% 16402 02-24-18
198 Badlex727 5.9% 16407 02-24-18
199 SonicU260 5.9% 16416 02-24-18
200 Richied 5.8% 16433 02-24-18
201 DaDude 5.7% 16451 02-24-18
202 Swinkly 5.7% 16453 02-24-18
203 Crispian 5.6% 16458 02-24-18
204 Vicklaw 5.6% 16466 02-24-18
205 sonicd5 5.6% 16469 02-24-18
206 Zip 5.5% 16473 02-24-18
207 ALundstrom10 5.2% 16537 02-24-18
208 VeritasDL 5.2% 16540 02-24-18
209 tal39h 5.1% 16543 02-24-18
210 Kirbymon30 5.1% 16559 02-24-18
211 soniccoloursunleashed 5.0% 16574 02-24-18
212 Drflash55 4.9% 16582 02-24-18
213 Bass 4.9% 16592 02-24-18
214 neaolas 4.7% 16614 02-24-18
215 superiorsonic 4.7% 16619 02-24-18
216 zapp 4.7% 16629 02-24-18
217 Yish 4.6% 16632 02-24-18
218 UninspiredUsername 4.6% 16640 02-24-18
219 Sonicsuperstar1 4.5% 16652 02-24-18
220 gamefreak1292 4.5% 16661 02-24-18
221 Sora_yx 4.3% 16690 02-24-18
222 Chaos_Overlord 4.2% 16717 02-24-18
223 TakaRikka 4.0% 16738 02-24-18
224 Valfore 4.0% 16743 02-24-18
225 Dage4Aquatic 3.9% 16765 02-24-18
226 ShinigamiMachine 3.8% 16779 02-24-18
227 Regano1000 3.7% 16787 02-24-18
228 MK 3.7% 16800 02-24-18
229 Ace747 3.6% 16819 02-24-18
230 Jua Rever 3.4% 16842 02-24-18
231 Illidan 3.1% 16892 02-24-18
232 HHNNBBHHN 3.1% 16896 02-24-18
233 Venick409 3.1% 16898 02-24-18
234 Brian_pso 3.1% 16901 02-24-18
234 Sithwarrior26 3.1% 16901 02-24-18
236 nman36 3.1% 16902 02-24-18
237 Egor305 3.0% 16922 02-24-18
238 SkyBon 3.0% 16923 02-24-18
239 ingx24 2.9% 16930 02-24-18
240 TheChaosEmeraIds 2.9% 16932 02-24-18
241 dekki1234 2.9% 16939 02-24-18
242 Nickson98 2.9% 16942 02-24-18
243 Fozer 2.8% 16954 02-24-18
244 Colomb_30 2.8% 16956 02-24-18
245 FSSRandomvids 2.8% 16959 02-24-18
246 Aiko 2.7% 16970 02-24-18
247 sonic29887 2.7% 16973 02-24-18
248 TheUltraBlur 2.6% 16984 02-24-18
249 1stKirbyever 2.6% 16988 02-24-18
250 TimTH 2.5% 17003 02-24-18
251 Th4tN1nj4Turtl3 2.4% 17024 02-24-18
252 Cort_pso 2.3% 17036 02-24-18
253 ieatatsonic 2.3% 17041 02-24-18
254 Mariosonic15 2.2% 17050 02-24-18
255 Doom-9 2.2% 17051 02-24-18
256 Artie 2.2% 17061 02-24-18
257 MStitomix 2.2% 17066 02-24-18
258 HermitHelmet 2.1% 17070 02-24-18
259 Got4n 2.0% 17090 02-24-18
259 SuperSonic71087 2.0% 17090 02-24-18
261 Jose_15 2.0% 17100 02-24-18
262 Questionguy555 1.9% 17106 02-24-18
263 djmat 1.9% 17117 02-24-18
264 SuperSonicfan9595 1.8% 17121 02-24-18
265 sonicandamy Player Banned 1.7% 17138 02-24-18
266 Heroes_Hater 1.7% 17140 02-24-18
267 LancexExWx 1.7% 17149 02-24-18
267 Paixii 1.7% 17149 02-24-18
269 son1cgu1tar 1.7% 17153 02-24-18
270 Mankster101 1.6% 17165 02-24-18
271 BallzeH 1.6% 17166 02-24-18
272 BecauseWarAnvil 1.5% 17174 02-24-18
273 Jamixesa 1.5% 17178 02-24-18
274 SpiritDragon1995 1.5% 17186 02-24-18
275 Crydio 1.4% 17190 02-24-18
276 Shanekilz 1.4% 17191 02-24-18
277 MarewBFN 1.3% 17207 02-24-18
278 stanski 1.3% 17209 02-24-18
279 Sonique Hedgehog 1.3% 17212 02-24-18
280 Blue Infamy 1.2% 17225 02-24-18
280 p0ker 1.2% 17225 02-24-18
282 ErrortheCucco 1.2% 17236 02-24-18
283 Rikum22 1.2% 17239 02-24-18
284 Arthas 1.1% 17242 02-24-18
285 sonic1001 1.1% 17247 02-24-18
286 syco1098 1.1% 17254 02-24-18
286 WingedInsignia 1.1% 17254 02-24-18
288 AJSIV 1.1% 17255 02-24-18
289 Sonic the Hedgehod16 1.1% 17258 02-24-18
290 ASINISTERTACO 1.0% 17264 02-24-18
291 sonicfan9 1.0% 17270 02-24-18
292 BlackArmsShadow 0.9% 17278 02-24-18
293 themachoman202 0.9% 17280 02-24-18
294 darkstarblaze 0.9% 17284 02-24-18
295 Fivavoa 0.9% 17289 02-24-18
295 shadowblast63 Player Banned 0.9% 17289 02-24-18
297 Greham Adelphis 0.9% 17290 02-24-18
298 MastaToken 0.9% 17292 02-24-18
298 Mr. Jones 0.9% 17292 02-24-18
300 Ben1502 0.8% 17293 02-24-18
301 arcfx1985 0.8% 17295 02-24-18
302 ptorflaxendrosis 0.8% 17297 02-24-18
303 TommyeAsY 0.8% 17298 02-24-18
304 FlandreScarlet9999vr 0.8% 17302 02-24-18
304 Gvozdevik 0.8% 17302 02-24-18
306 Knuckles 0.8% 17303 02-24-18
307 Zeldocto 0.8% 17305 02-24-18
308 KaM Mark MaK 0.8% 17307 02-24-18
309 BeeAwwb 0.8% 17308 02-24-18
310 ShadouZaHejjihoggu 0.7% 17315 02-24-18
311 Sarger001 0.7% 17321 02-24-18
312 dragondragon18 0.7% 17324 02-24-18
312 Sonic The Star 0.7% 17324 02-24-18
312 Sonic62 0.7% 17324 02-24-18
315 darkersupershadic 0.7% 17325 02-24-18
316 Sogeking 0.6% 17330 02-24-18
317 Grady219 0.6% 17331 02-24-18
317 Shadygamerfreak 0.6% 17331 02-24-18
319 SonicK100 0.6% 17332 02-24-18
320 BioShadow 0.6% 17333 02-24-18
321 Jawaah 0.6% 17339 02-24-18
322 Antek 0.6% 17342 02-24-18
323 SilverK 0.6% 17343 02-24-18
324 Klaus 0.6% 17344 02-24-18
325 SpinDashMaster 0.5% 17349 02-24-18
326 Videogamer123 0.5% 17354 02-24-18
327 isaihtb11 0.4% 17369 02-24-18
327 oTaiIilLsS 0.4% 17369 02-24-18
329 OhNoes! 0.4% 17372 02-24-18
329 zaktu40 0.4% 17372 02-24-18
331 gaara1234 0.4% 17375 02-24-18
332 Mad Andy 0.4% 17376 02-24-18
332 S-MS32X-S 0.4% 17376 02-24-18
334 gamed00d 0.4% 17377 02-24-18
335 Mister_Slick 0.3% 17388 02-24-18
336 Rush Hero 0.3% 17391 02-24-18
336 Sonic06Fan 0.3% 17391 02-24-18
338 ChaosNexuss 0.3% 17392 02-24-18
339 SonicMega167 0.3% 17397 02-24-18
340 Iwannabelink 0.2% 17399 02-24-18
341 sonknuck23 0.2% 17402 02-24-18
342 gamer1245 0.2% 17411 02-24-18
343 DanielTheFalcon 0.2% 17412 02-24-18
344 Burningskull123 0.1% 17416 02-24-18
345 Sonicontherun 0.1% 17427 02-24-18
346 Lil_Dude 0.1% 17432 02-24-18
347 antiwwe 0.0% 17433 02-24-18
348 Tyrouble 0.0% 17435 02-24-18
349 Genuine Hedgehog 0.0% 17436 02-24-18
349 SonataSpinDash 0.0% 17436 02-24-18
351 Cbwade15 0.0% 17440 02-24-18
352 MegabombBlade 0.0% 17450 02-24-18
352 neji_hyuuga 0.0% 17450 02-24-18
352 Over 0.0% 17450 02-24-18
352 sdj6707 Player Banned 0.0% 17450 02-24-18
352 Tran Sonic Fan Player Banned 0.0% 17450 02-24-18

This page is using the New Data Table System. [FUTURE]

Game ID: 3 | Category ID: 10
Hits: 71,927 | Hits This Month: 193 | DB Calls: 21 | Mem Usage: 5.48 MB | Time: 0.14s | Printable

The Sonic Center v3.9
Copyright 2003-2011 by The Sonic Center Team.